Terminal Aerodrome Forecast
Issued by NWS

Home | Current Version | Previous Version | Text Only | Print | Product List | Glossary Off
Versions: 1 2 3 4 5 6 7 8 9 10 11 12 13 14 15 16

000
FTUS43 KICT 271133
TAFRSL
TAF
KRSL 271133Z 2712/2812 06005KT P6SM VCTS BKN060CB
     FM271800 36019G28KT P6SM VCSH BKN020
     FM272100 35014KT P6SM BKN035
     FM280200 35014KT P6SM SCT080=

USA.gov is the U.S. government's official web portal to all federal, state and local government web resources and services.